sensor_id;sensor_type;location;lat;lon;timestamp;pressure;altitude;pressure_sealevel;temperature;humidity
72359;BME280;60317;48.880;-0.862;2022-12-29T00:02:05;99206.91;;;16.66;54.11
72359;BME280;60317;48.880;-0.862;2022-12-29T00:04:31;99205.06;;;16.66;54.11
72359;BME280;60317;48.880;-0.862;2022-12-29T00:06:57;99206.06;;;16.65;54.01
72359;BME280;60317;48.880;-0.862;2022-12-29T00:09:25;99199.88;;;16.65;54.11
72359;BME280;60317;48.880;-0.862;2022-12-29T00:11:51;99206.91;;;16.66;53.96
72359;BME280;60317;48.880;-0.862;2022-12-29T00:14:19;99199.88;;;16.65;53.85
72359;BME280;60317;48.880;-0.862;2022-12-29T00:16:51;99184.72;;;16.65;53.92
72359;BME280;60317;48.880;-0.862;2022-12-29T00:19:17;99194.41;;;16.66;53.89
72359;BME280;60317;48.880;-0.862;2022-12-29T00:21:44;99193.44;;;16.67;53.95
72359;BME280;60317;48.880;-0.862;2022-12-29T00:24:12;99189.22;;;16.65;53.90
72359;BME280;60317;48.880;-0.862;2022-12-29T00:26:39;99188.38;;;16.64;53.79
72359;BME280;60317;48.880;-0.862;2022-12-29T00:29:06;99186.53;;;16.65;53.98
72359;BME280;60317;48.880;-0.862;2022-12-29T00:31:34;99170.53;;;16.65;53.65
72359;BME280;60317;48.880;-0.862;2022-12-29T00:34:01;99176.72;;;16.65;54.03
72359;BME280;60317;48.880;-0.862;2022-12-29T00:36:28;99168.72;;;16.65;53.81
72359;BME280;60317;48.880;-0.862;2022-12-29T00:38:56;99172.22;;;16.66;53.61
72359;BME280;60317;48.880;-0.862;2022-12-29T00:41:23;99168.88;;;16.64;53.64
72359;BME280;60317;48.880;-0.862;2022-12-29T00:43:50;99176.88;;;16.64;53.72
72359;BME280;60317;48.880;-0.862;2022-12-29T00:46:16;99183.03;;;16.64;53.91
72359;BME280;60317;48.880;-0.862;2022-12-29T00:48:46;99182.03;;;16.65;53.65
72359;BME280;60317;48.880;-0.862;2022-12-29T00:51:13;99177.72;;;16.64;53.67
72359;BME280;60317;48.880;-0.862;2022-12-29T00:53:40;99180.38;;;16.64;53.72
72359;BME280;60317;48.880;-0.862;2022-12-29T00:56:06;99185.72;;;16.64;53.77
72359;BME280;60317;48.880;-0.862;2022-12-29T00:58:33;99179.53;;;16.64;53.51
72359;BME280;60317;48.880;-0.862;2022-12-29T01:01:00;99176.00;;;16.63;53.72
72359;BME280;60317;48.880;-0.862;2022-12-29T01:03:27;99187.53;;;16.64;53.87
72359;BME280;60317;48.880;-0.862;2022-12-29T01:05:54;99178.66;;;16.63;53.49
72359;BME280;60317;48.880;-0.862;2022-12-29T01:08:21;99184.00;;;16.63;53.72
72359;BME280;60317;48.880;-0.862;2022-12-29T01:10:57;99174.19;;;16.64;53.58
72359;BME280;60317;48.880;-0.862;2022-12-29T01:13:23;99172.38;;;16.64;53.65
72359;BME280;60317;48.880;-0.862;2022-12-29T01:15:50;99158.03;;;16.65;53.61
72359;BME280;60317;48.880;-0.862;2022-12-29T01:18:16;99170.66;;;16.63;53.49
72359;BME280;60317;48.880;-0.862;2022-12-29T01:20:43;99176.72;;;16.65;53.56
72359;BME280;60317;48.880;-0.862;2022-12-29T01:23:11;99177.72;;;16.64;53.45
72359;BME280;60317;48.880;-0.862;2022-12-29T01:25:37;99176.88;;;16.64;53.47
72359;BME280;60317;48.880;-0.862;2022-12-29T01:28:03;99179.66;;;16.62;53.71
72359;BME280;60317;48.880;-0.862;2022-12-29T01:30:30;99183.03;;;16.64;53.55
72359;BME280;60317;48.880;-0.862;2022-12-29T01:32:56;99194.66;;;16.63;53.60
72359;BME280;60317;48.880;-0.862;2022-12-29T01:35:22;99187.53;;;16.64;53.44
72359;BME280;60317;48.880;-0.862;2022-12-29T01:37:49;99181.34;;;16.63;53.44
72359;BME280;60317;48.880;-0.862;2022-12-29T01:40:16;99192.72;;;16.65;53.44
72359;BME280;60317;48.880;-0.862;2022-12-29T01:42:43;99183.03;;;16.64;53.45
72359;BME280;60317;48.880;-0.862;2022-12-29T01:45:10;99186.66;;;16.63;53.41
72359;BME280;60317;48.880;-0.862;2022-12-29T01:47:38;99173.47;;;16.62;53.59
72359;BME280;60317;48.880;-0.862;2022-12-29T01:50:06;99181.63;;;16.60;53.51
72359;BME280;60317;48.880;-0.862;2022-12-29T01:52:35;99172.50;;;16.63;53.22
72359;BME280;60317;48.880;-0.862;2022-12-29T01:55:03;99183.31;;;16.61;53.40
72359;BME280;60317;48.880;-0.862;2022-12-29T01:57:33;99179.66;;;16.62;53.31
72359;BME280;60317;48.880;-0.862;2022-12-29T02:00:02;99189.34;;;16.63;53.24
72359;BME280;60317;48.880;-0.862;2022-12-29T02:02:28;99190.31;;;16.62;53.21
72359;BME280;60317;48.880;-0.862;2022-12-29T02:04:58;99201.00;;;16.62;53.28
72359;BME280;60317;48.880;-0.862;2022-12-29T02:07:30;99203.53;;;16.64;53.13
72359;BME280;60317;48.880;-0.862;2022-12-29T02:09:57;99209.84;;;16.63;53.30
72359;BME280;60317;48.880;-0.862;2022-12-29T02:12:24;99204.50;;;16.63;53.30
72359;BME280;60317;48.880;-0.862;2022-12-29T02:14:53;99206.34;;;16.62;53.10
72359;BME280;60317;48.880;-0.862;2022-12-29T02:17:22;99211.66;;;16.62;53.31
72359;BME280;60317;48.880;-0.862;2022-12-29T02:22:31;99214.34;;;16.62;53.10
72359;BME280;60317;48.880;-0.862;2022-12-29T02:25:09;99208.16;;;16.62;53.31
72359;BME280;60317;48.880;-0.862;2022-12-29T02:27:48;99211.81;;;16.61;53.07
72359;BME280;60317;48.880;-0.862;2022-12-29T02:30:36;99203.81;;;16.61;53.22
72359;BME280;60317;48.880;-0.862;2022-12-29T02:33:08;99219.81;;;16.61;53.32
72359;BME280;60317;48.880;-0.862;2022-12-29T02:35:40;99209.00;;;16.62;53.25
72359;BME280;60317;48.880;-0.862;2022-12-29T02:38:12;99217.16;;;16.61;52.86
72359;BME280;60317;48.880;-0.862;2022-12-29T02:40:43;99226.56;;;16.65;52.98
72359;BME280;60317;48.880;-0.862;2022-12-29T02:43:14;99218.56;;;16.65;52.98
72359;BME280;60317;48.880;-0.862;2022-12-29T02:45:47;99223.34;;;16.61;52.85
72359;BME280;60317;48.880;-0.862;2022-12-29T02:48:18;99219.81;;;16.61;53.24
72359;BME280;60317;48.880;-0.862;2022-12-29T02:50:47;99222.50;;;16.61;52.90
72359;BME280;60317;48.880;-0.862;2022-12-29T02:53:17;99230.34;;;16.62;52.83
72359;BME280;60317;48.880;-0.862;2022-12-29T02:55:47;99235.81;;;16.61;52.96
72359;BME280;60317;48.880;-0.862;2022-12-29T02:58:16;99234.13;;;16.60;52.97
72359;BME280;60317;48.880;-0.862;2022-12-29T03:00:51;99247.47;;;16.60;52.83
72359;BME280;60317;48.880;-0.862;2022-12-29T03:03:22;99243.94;;;16.59;52.87
72359;BME280;60317;48.880;-0.862;2022-12-29T03:05:57;99243.94;;;16.59;53.01
72359;BME280;60317;48.880;-0.862;2022-12-29T03:08:31;99235.00;;;16.60;52.97
72359;BME280;60317;48.880;-0.862;2022-12-29T03:11:01;99238.63;;;16.59;52.84
72359;BME280;60317;48.880;-0.862;2022-12-29T03:13:29;99230.63;;;16.59;52.83
72359;BME280;60317;48.880;-0.862;2022-12-29T03:16:04;99232.31;;;16.60;52.82
72359;BME280;60317;48.880;-0.862;2022-12-29T03:18:34;99218.41;;;16.57;52.99
72359;BME280;60317;48.880;-0.862;2022-12-29T03:21:05;99227.09;;;16.59;52.88
72359;BME280;60317;48.880;-0.862;2022-12-29T03:23:34;99231.59;;;16.58;52.74
72359;BME280;60317;48.880;-0.862;2022-12-29T03:26:01;99230.75;;;16.58;52.88
72359;BME280;60317;48.880;-0.862;2022-12-29T03:28:30;99238.63;;;16.59;52.82
72359;BME280;60317;48.880;-0.862;2022-12-29T03:30:59;99250.13;;;16.60;52.68
72359;BME280;60317;48.880;-0.862;2022-12-29T03:33:28;99249.28;;;16.59;52.83
72359;BME280;60317;48.880;-0.862;2022-12-29T03:35:56;99245.66;;;16.60;52.73
72359;BME280;60317;48.880;-0.862;2022-12-29T03:38:25;99253.78;;;16.59;52.54
72359;BME280;60317;48.880;-0.862;2022-12-29T03:40:55;99247.59;;;16.58;52.49
72359;BME280;60317;48.880;-0.862;2022-12-29T03:43:23;99246.63;;;16.59;52.59
72359;BME280;60317;48.880;-0.862;2022-12-29T03:45:49;99256.59;;;16.57;52.70
72359;BME280;60317;48.880;-0.862;2022-12-29T03:48:15;99260.09;;;16.58;52.54
72359;BME280;60317;48.880;-0.862;2022-12-29T03:50:43;99262.78;;;16.58;52.74
72359;BME280;60317;48.880;-0.862;2022-12-29T03:53:09;99256.59;;;16.57;52.56
72359;BME280;60317;48.880;-0.862;2022-12-29T03:55:36;99267.28;;;16.57;52.65
72359;BME280;60317;48.880;-0.862;2022-12-29T03:58:02;99266.44;;;16.57;52.47
72359;BME280;60317;48.880;-0.862;2022-12-29T04:00:29;99274.44;;;16.57;52.42
72359;BME280;60317;48.880;-0.862;2022-12-29T04:02:55;99269.09;;;16.57;52.47
72359;BME280;60317;48.880;-0.862;2022-12-29T04:05:22;99274.28;;;16.58;52.38
72359;BME280;60317;48.880;-0.862;2022-12-29T04:07:49;99272.72;;;16.56;52.27
72359;BME280;60317;48.880;-0.862;2022-12-29T04:10:16;99284.22;;;16.56;52.29
72359;BME280;60317;48.880;-0.862;2022-12-29T04:12:43;99276.22;;;16.56;52.21
72359;BME280;60317;48.880;-0.862;2022-12-29T04:15:10;99275.41;;;16.56;52.26
72359;BME280;60317;48.880;-0.862;2022-12-29T04:17:36;99288.88;;;16.54;52.21
72359;BME280;60317;48.880;-0.862;2022-12-29T04:20:03;99282.72;;;16.54;52.53
72359;BME280;60317;48.880;-0.862;2022-12-29T04:22:30;99296.63;;;16.57;52.42
72359;BME280;60317;48.880;-0.862;2022-12-29T04:24:57;99294.06;;;16.56;52.25
72359;BME280;60317;48.880;-0.862;2022-12-29T04:27:24;99295.91;;;16.55;52.44
72359;BME280;60317;48.880;-0.862;2022-12-29T04:29:50;99303.91;;;16.55;52.10
72359;BME280;60317;48.880;-0.862;2022-12-29T04:32:17;99297.72;;;16.55;52.06
72359;BME280;60317;48.880;-0.862;2022-12-29T04:34:43;99304.03;;;16.54;52.23
72359;BME280;60317;48.880;-0.862;2022-12-29T04:37:10;99297.72;;;16.55;52.03
72359;BME280;60317;48.880;-0.862;2022-12-29T04:39:36;99298.56;;;16.55;52.29
72359;BME280;60317;48.880;-0.862;2022-12-29T04:42:04;99309.38;;;16.54;52.24
72359;BME280;60317;48.880;-0.862;2022-12-29T04:44:30;99314.56;;;16.55;52.08
72359;BME280;60317;48.880;-0.862;2022-12-29T04:46:56;99323.41;;;16.56;52.23
72359;BME280;60317;48.880;-0.862;2022-12-29T04:49:23;99320.06;;;16.54;51.96
72359;BME280;60317;48.880;-0.862;2022-12-29T04:51:49;99311.06;;;16.55;51.86
72359;BME280;60317;48.880;-0.862;2022-12-29T04:54:15;99312.88;;;16.54;52.07
72359;BME280;60317;48.880;-0.862;2022-12-29T04:56:42;99310.22;;;16.54;52.03
72359;BME280;60317;48.880;-0.862;2022-12-29T04:59:09;99312.88;;;16.54;52.24
72359;BME280;60317;48.880;-0.862;2022-12-29T05:01:36;99322.72;;;16.54;51.96
72359;BME280;60317;48.880;-0.862;2022-12-29T05:04:02;99321.00;;;16.53;52.07
72359;BME280;60317;48.880;-0.862;2022-12-29T05:06:29;99318.34;;;16.53;52.04
72359;BME280;60317;48.880;-0.862;2022-12-29T05:08:55;99326.22;;;16.54;51.94
72359;BME280;60317;48.880;-0.862;2022-12-29T05:11:21;99337.72;;;16.55;51.91
72359;BME280;60317;48.880;-0.862;2022-12-29T05:13:47;99338.72;;;16.54;51.90
72359;BME280;60317;48.880;-0.862;2022-12-29T05:16:15;99341.50;;;16.52;51.76
72359;BME280;60317;48.880;-0.862;2022-12-29T05:18:42;99358.50;;;16.51;51.73
72359;BME280;60317;48.880;-0.862;2022-12-29T05:21:08;99355.84;;;16.51;51.82
72359;BME280;60317;48.880;-0.862;2022-12-29T05:23:35;99364.66;;;16.52;51.81
72359;BME280;60317;48.880;-0.862;2022-12-29T05:26:01;99369.16;;;16.51;51.92
72359;BME280;60317;48.880;-0.862;2022-12-29T05:28:28;99376.19;;;16.52;51.73
72359;BME280;60317;48.880;-0.862;2022-12-29T05:30:54;99374.50;;;16.51;51.90
72359;BME280;60317;48.880;-0.862;2022-12-29T05:33:22;99393.16;;;16.51;51.79
72359;BME280;60317;48.880;-0.862;2022-12-29T05:35:48;99395.84;;;16.51;51.74
72359;BME280;60317;48.880;-0.862;2022-12-29T05:38:15;99397.66;;;16.51;51.71
72359;BME280;60317;48.880;-0.862;2022-12-29T05:40:43;99395.00;;;16.51;51.85
72359;BME280;60317;48.880;-0.862;2022-12-29T05:43:10;99402.16;;;16.50;51.76
72359;BME280;60317;48.880;-0.862;2022-12-29T05:45:36;99414.63;;;16.50;51.77
72359;BME280;60317;48.880;-0.862;2022-12-29T05:48:03;99416.34;;;16.51;51.68
72359;BME280;60317;48.880;-0.862;2022-12-29T05:50:30;99420.84;;;16.50;51.73
72359;BME280;60317;48.880;-0.862;2022-12-29T05:52:57;99411.00;;;16.51;51.62
72359;BME280;60317;48.880;-0.862;2022-12-29T05:55:23;99419.84;;;16.51;51.68
72359;BME280;60317;48.880;-0.862;2022-12-29T05:57:49;99418.03;;;16.52;51.77
72359;BME280;60317;48.880;-0.862;2022-12-29T06:00:16;99422.50;;;16.51;51.68
72359;BME280;60317;48.880;-0.862;2022-12-29T06:02:42;99427.97;;;16.50;51.41
72359;BME280;60317;48.880;-0.862;2022-12-29T06:05:09;99438.63;;;16.50;51.71
72359;BME280;60317;48.880;-0.862;2022-12-29T06:07:37;99440.47;;;16.49;51.61
72359;BME280;60317;48.880;-0.862;2022-12-29T06:10:04;99443.84;;;16.51;51.67
72359;BME280;60317;48.880;-0.862;2022-12-29T06:12:30;99438.63;;;16.50;51.61
72359;BME280;60317;48.880;-0.862;2022-12-29T06:14:57;99451.13;;;16.49;51.55
72359;BME280;60317;48.880;-0.862;2022-12-29T06:17:23;99444.13;;;16.48;51.63
72359;BME280;60317;48.880;-0.862;2022-12-29T06:19:49;99446.78;;;16.48;51.37
72359;BME280;60317;48.880;-0.862;2022-12-29T06:22:16;99449.44;;;16.48;51.53
72359;BME280;60317;48.880;-0.862;2022-12-29T06:24:44;99458.28;;;16.49;51.55
72359;BME280;60317;48.880;-0.862;2022-12-29T06:27:10;99454.78;;;16.48;51.44
72359;BME280;60317;48.880;-0.862;2022-12-29T06:29:37;99459.28;;;16.48;51.46
72359;BME280;60317;48.880;-0.862;2022-12-29T06:32:03;99452.25;;;16.46;51.55
72359;BME280;60317;48.880;-0.862;2022-12-29T06:34:30;99463.78;;;16.47;51.19
72359;BME280;60317;48.880;-0.862;2022-12-29T06:36:56;99462.06;;;16.46;51.37
72359;BME280;60317;48.880;-0.862;2022-12-29T06:39:22;99459.38;;;16.46;51.27
72359;BME280;60317;48.880;-0.862;2022-12-29T06:41:52;99463.78;;;16.47;51.51
72359;BME280;60317;48.880;-0.862;2022-12-29T06:44:19;99476.25;;;16.46;51.42
72359;BME280;60317;48.880;-0.862;2022-12-29T06:46:45;99465.59;;;16.46;51.44
72359;BME280;60317;48.880;-0.862;2022-12-29T06:49:11;99465.59;;;16.46;51.04
72359;BME280;60317;48.880;-0.862;2022-12-29T06:51:38;99474.56;;;16.45;51.15
72359;BME280;60317;48.880;-0.862;2022-12-29T06:54:04;99475.38;;;16.46;51.14
72359;BME280;60317;48.880;-0.862;2022-12-29T06:56:31;99473.59;;;16.46;51.28
72359;BME280;60317;48.880;-0.862;2022-12-29T06:58:59;99472.88;;;16.44;51.42
72359;BME280;60317;48.880;-0.862;2022-12-29T07:01:25;99486.94;;;16.46;51.04
72359;BME280;60317;48.880;-0.862;2022-12-29T07:03:52;99481.44;;;16.48;51.04
72359;BME280;60317;48.880;-0.862;2022-12-29T07:06:18;99484.38;;;16.45;51.01
72359;BME280;60317;48.880;-0.862;2022-12-29T07:08:45;99478.06;;;16.46;51.07
72359;BME280;60317;48.880;-0.862;2022-12-29T07:11:11;99477.22;;;16.45;51.16
72359;BME280;60317;48.880;-0.862;2022-12-29T07:13:37;99487.03;;;16.45;51.07
72359;BME280;60317;48.880;-0.862;2022-12-29T07:16:06;99481.72;;;16.45;51.39
72359;BME280;60317;48.880;-0.862;2022-12-29T07:18:32;99489.72;;;16.45;51.08
72359;BME280;60317;48.880;-0.862;2022-12-29T07:20:59;99493.38;;;16.44;51.15
72359;BME280;60317;48.880;-0.862;2022-12-29T07:23:25;99493.38;;;16.44;50.94
72359;BME280;60317;48.880;-0.862;2022-12-29T07:25:58;99495.19;;;16.43;51.04
72359;BME280;60317;48.880;-0.862;2022-12-29T07:28:24;99511.19;;;16.43;51.03
72359;BME280;60317;48.880;-0.862;2022-12-29T07:30:50;99511.19;;;16.43;50.95
72359;BME280;60317;48.880;-0.862;2022-12-29T07:33:18;99512.03;;;16.44;51.14
72359;BME280;60317;48.880;-0.862;2022-12-29T07:35:44;99511.19;;;16.43;51.10
72359;BME280;60317;48.880;-0.862;2022-12-29T07:38:11;99518.34;;;16.43;51.04
72359;BME280;60317;48.880;-0.862;2022-12-29T07:40:37;99514.81;;;16.42;50.97
72359;BME280;60317;48.880;-0.862;2022-12-29T07:43:04;99523.69;;;16.43;50.91
72359;BME280;60317;48.880;-0.862;2022-12-29T07:45:30;99523.69;;;16.43;50.74
72359;BME280;60317;48.880;-0.862;2022-12-29T07:47:56;99526.34;;;16.43;51.00
72359;BME280;60317;48.880;-0.862;2022-12-29T07:50:24;99529.97;;;16.42;50.89
72359;BME280;60317;48.880;-0.862;2022-12-29T07:52:50;99521.13;;;16.41;50.80
72359;BME280;60317;48.880;-0.862;2022-12-29T07:55:17;99534.47;;;16.41;50.67
72359;BME280;60317;48.880;-0.862;2022-12-29T07:57:43;99532.63;;;16.42;50.75
72359;BME280;60317;48.880;-0.862;2022-12-29T08:00:10;99538.13;;;16.40;51.02
72359;BME280;60317;48.880;-0.862;2022-12-29T08:02:36;99543.31;;;16.42;50.73
72359;BME280;60317;48.880;-0.862;2022-12-29T08:05:03;99545.13;;;16.41;50.54
72359;BME280;60317;48.880;-0.862;2022-12-29T08:07:30;99535.31;;;16.42;50.96
72359;BME280;60317;48.880;-0.862;2022-12-29T08:09:57;99552.28;;;16.41;50.83
72359;BME280;60317;48.880;-0.862;2022-12-29T08:12:23;99546.13;;;16.40;50.78
72359;BME280;60317;48.880;-0.862;2022-12-29T08:14:49;99554.13;;;16.40;50.72
72359;BME280;60317;48.880;-0.862;2022-12-29T08:17:16;99561.13;;;16.41;50.56
72359;BME280;60317;48.880;-0.862;2022-12-29T08:19:42;99559.44;;;16.40;50.48
72359;BME280;60317;48.880;-0.862;2022-12-29T08:22:09;99569.28;;;16.40;50.79
72359;BME280;60317;48.880;-0.862;2022-12-29T08:24:37;99576.44;;;16.39;50.60
72359;BME280;60317;48.880;-0.862;2022-12-29T08:27:03;99591.56;;;16.39;50.70
72359;BME280;60317;48.880;-0.862;2022-12-29T08:29:43;99595.09;;;16.39;50.50
72359;BME280;60317;48.880;-0.862;2022-12-29T08:32:09;99597.78;;;16.39;50.82
72359;BME280;60317;48.880;-0.862;2022-12-29T08:34:36;99589.78;;;16.39;50.53
72359;BME280;60317;48.880;-0.862;2022-12-29T08:37:02;99588.78;;;16.40;50.57
72359;BME280;60317;48.880;-0.862;2022-12-29T08:39:28;99591.56;;;16.39;50.84
72359;BME280;60317;48.880;-0.862;2022-12-29T08:41:56;99597.63;;;16.41;50.68
72359;BME280;60317;48.880;-0.862;2022-12-29T08:44:22;99588.78;;;16.40;50.70
72359;BME280;60317;48.880;-0.862;2022-12-29T08:46:49;99611.09;;;16.39;50.74
72359;BME280;60317;48.880;-0.862;2022-12-29T08:49:15;99606.72;;;16.38;50.48
72359;BME280;60317;48.880;-0.862;2022-12-29T08:51:42;99620.91;;;16.39;50.84
72359;BME280;60317;48.880;-0.862;2022-12-29T08:54:08;99619.13;;;16.39;50.45
72359;BME280;60317;48.880;-0.862;2022-12-29T08:56:34;99635.13;;;16.39;50.72
72359;BME280;60317;48.880;-0.862;2022-12-29T08:59:02;99631.47;;;16.40;50.74
72359;BME280;60317;48.880;-0.862;2022-12-29T09:01:28;99622.63;;;16.40;50.51
72359;BME280;60317;48.880;-0.862;2022-12-29T09:03:55;99643.13;;;16.39;50.53
72359;BME280;60317;48.880;-0.862;2022-12-29T09:06:41;99642.25;;;16.39;50.64
72359;BME280;60317;48.880;-0.862;2022-12-29T09:09:08;99644.91;;;16.39;50.63
72359;BME280;60317;48.880;-0.862;2022-12-29T09:11:34;99666.25;;;16.39;50.54
72359;BME280;60317;48.880;-0.862;2022-12-29T09:14:02;99654.72;;;16.38;50.46
72359;BME280;60317;48.880;-0.862;2022-12-29T09:16:29;99668.91;;;16.39;50.35
72359;BME280;60317;48.880;-0.862;2022-12-29T09:18:55;99663.56;;;16.39;50.41
72359;BME280;60317;48.880;-0.862;2022-12-29T09:21:21;99668.91;;;16.39;50.76
72359;BME280;60317;48.880;-0.862;2022-12-29T09:23:48;99661.78;;;16.39;50.34
72359;BME280;60317;48.880;-0.862;2022-12-29T09:26:14;99667.97;;;16.40;50.27
72359;BME280;60317;48.880;-0.862;2022-12-29T09:28:41;99658.25;;;16.39;50.30
72359;BME280;60317;48.880;-0.862;2022-12-29T09:31:08;99645.88;;;16.38;50.52
72359;BME280;60317;48.880;-0.862;2022-12-29T09:33:35;99665.28;;;16.40;50.15
72359;BME280;60317;48.880;-0.862;2022-12-29T09:36:02;99660.06;;;16.38;50.35
72359;BME280;60317;48.880;-0.862;2022-12-29T09:38:28;99673.41;;;16.38;50.23
72359;BME280;60317;48.880;-0.862;2022-12-29T09:40:56;99671.72;;;16.37;50.37
72359;BME280;60317;48.880;-0.862;2022-12-29T09:43:27;99683.22;;;16.38;50.23
72359;BME280;60317;48.880;-0.862;2022-12-29T09:46:01;99683.22;;;16.38;50.26
72359;BME280;60317;48.880;-0.862;2022-12-29T09:48:34;99675.22;;;16.38;50.34
72359;BME280;60317;48.880;-0.862;2022-12-29T09:51:02;99676.22;;;16.37;50.44
72359;BME280;60317;48.880;-0.862;2022-12-29T09:53:30;99680.56;;;16.38;50.26
72359;BME280;60317;48.880;-0.862;2022-12-29T09:55:59;99669.88;;;16.38;50.37
72359;BME280;60317;48.880;-0.862;2022-12-29T09:58:28;99672.56;;;16.38;50.51
72359;BME280;60317;48.880;-0.862;2022-12-29T10:00:58;99686.88;;;16.37;50.16
72359;BME280;60317;48.880;-0.862;2022-12-29T10:03:26;99697.53;;;16.37;50.43
72359;BME280;60317;48.880;-0.862;2022-12-29T10:05:56;99681.41;;;16.38;50.27
72359;BME280;60317;48.880;-0.862;2022-12-29T10:08:27;99705.41;;;16.38;50.18
72359;BME280;60317;48.880;-0.862;2022-12-29T10:10:56;99696.56;;;16.38;50.15
72359;BME280;60317;48.880;-0.862;2022-12-29T10:13:26;99700.06;;;16.38;50.19
72359;BME280;60317;48.880;-0.862;2022-12-29T10:15:57;99704.56;;;16.38;50.20
72359;BME280;60317;48.880;-0.862;2022-12-29T10:18:32;99705.53;;;16.37;50.29
72359;BME280;60317;48.880;-0.862;2022-12-29T10:21:05;99701.06;;;16.37;50.10
72359;BME280;60317;48.880;-0.862;2022-12-29T10:23:35;99714.38;;;16.37;50.09
72359;BME280;60317;48.880;-0.862;2022-12-29T10:26:04;99706.38;;;16.37;50.26
72359;BME280;60317;48.880;-0.862;2022-12-29T10:28:37;99702.88;;;16.37;50.06
72359;BME280;60317;48.880;-0.862;2022-12-29T10:31:07;99700.06;;;16.38;49.93
72359;BME280;60317;48.880;-0.862;2022-12-29T10:33:36;99694.88;;;16.37;50.06
72359;BME280;60317;48.880;-0.862;2022-12-29T10:36:10;99705.53;;;16.37;49.93
72359;BME280;60317;48.880;-0.862;2022-12-29T10:38:39;99703.72;;;16.37;50.19
72359;BME280;60317;48.880;-0.862;2022-12-29T10:41:08;99696.56;;;16.38;49.91
72359;BME280;60317;48.880;-0.862;2022-12-29T10:43:40;99700.22;;;16.37;49.83
72359;BME280;60317;48.880;-0.862;2022-12-29T10:46:09;99711.59;;;16.39;49.99
72359;BME280;60317;48.880;-0.862;2022-12-29T10:48:38;99707.97;;;16.40;49.73
72359;BME280;60317;48.880;-0.862;2022-12-29T10:51:05;99711.59;;;16.39;50.12
72359;BME280;60317;48.880;-0.862;2022-12-29T10:53:37;99712.56;;;16.38;49.92
72359;BME280;60317;48.880;-0.862;2022-12-29T10:56:09;99720.56;;;16.38;50.09
72359;BME280;60317;48.880;-0.862;2022-12-29T10:58:40;99725.78;;;16.39;49.77
72359;BME280;60317;48.880;-0.862;2022-12-29T11:01:14;99721.41;;;16.38;49.91
72359;BME280;60317;48.880;-0.862;2022-12-29T11:03:44;99727.59;;;16.39;50.00
72359;BME280;60317;48.880;-0.862;2022-12-29T11:06:13;99722.25;;;16.39;49.88
72359;BME280;60317;48.880;-0.862;2022-12-29T11:08:47;99719.59;;;16.39;49.88
72359;BME280;60317;48.880;-0.862;2022-12-29T11:11:21;99720.47;;;16.39;49.86
72359;BME280;60317;48.880;-0.862;2022-12-29T11:13:49;99715.97;;;16.40;49.72
72359;BME280;60317;48.880;-0.862;2022-12-29T11:16:19;99721.31;;;16.40;49.71
72359;BME280;60317;48.880;-0.862;2022-12-29T11:18:53;99724.91;;;16.39;49.72
72359;BME280;60317;48.880;-0.862;2022-12-29T11:21:24;99729.31;;;16.40;49.86
72359;BME280;60317;48.880;-0.862;2022-12-29T11:23:56;99731.13;;;16.39;49.99
72359;BME280;60317;48.880;-0.862;2022-12-29T11:26:23;99733.78;;;16.39;49.85
72359;BME280;60317;48.880;-0.862;2022-12-29T11:29:05;99743.47;;;16.40;50.11
72359;BME280;60317;48.880;-0.862;2022-12-29T11:31:40;99740.81;;;16.40;49.86
72359;BME280;60317;48.880;-0.862;2022-12-29T11:34:06;99754.16;;;16.40;49.73
72359;BME280;60317;48.880;-0.862;2022-12-29T11:36:33;99742.63;;;16.40;49.78
72359;BME280;60317;48.880;-0.862;2022-12-29T11:39:01;99746.16;;;16.40;49.71
72359;BME280;60317;48.880;-0.862;2022-12-29T11:41:35;99749.78;;;16.39;49.68
72359;BME280;60317;48.880;-0.862;2022-12-29T11:44:02;99755.97;;;16.40;49.79
72359;BME280;60317;48.880;-0.862;2022-12-29T11:46:31;99744.47;;;16.39;49.65
72359;BME280;60317;48.880;-0.862;2022-12-29T11:48:59;99740.81;;;16.40;49.62
72359;BME280;60317;48.880;-0.862;2022-12-29T11:51:26;99746.16;;;16.40;49.53
72359;BME280;60317;48.880;-0.862;2022-12-29T11:53:55;99747.00;;;16.41;49.53
72359;BME280;60317;48.880;-0.862;2022-12-29T11:56:33;99751.34;;;16.42;49.56
72359;BME280;60317;48.880;-0.862;2022-12-29T12:01:42;99749.66;;;16.41;49.81
72359;BME280;60317;48.880;-0.862;2022-12-29T12:04:10;99747.00;;;16.41;49.74
72359;BME280;60317;48.880;-0.862;2022-12-29T12:06:41;99743.34;;;16.42;49.52
72359;BME280;60317;48.880;-0.862;2022-12-29T12:09:10;99750.41;;;16.43;49.54
72359;BME280;60317;48.880;-0.862;2022-12-29T12:11:42;99741.66;;;16.41;49.40
72359;BME280;60317;48.880;-0.862;2022-12-29T12:14:11;99737.91;;;16.43;49.40
72359;BME280;60317;48.880;-0.862;2022-12-29T12:16:40;99741.28;;;16.45;49.26
72359;BME280;60317;48.880;-0.862;2022-12-29T12:19:10;99738.84;;;16.42;49.32
72359;BME280;60317;48.880;-0.862;2022-12-29T12:21:40;99736.91;;;16.44;49.22
72359;BME280;60317;48.880;-0.862;2022-12-29T12:24:15;99727.22;;;16.43;49.31
72359;BME280;60317;48.880;-0.862;2022-12-29T12:26:50;99726.50;;;16.41;49.26
72359;BME280;60317;48.880;-0.862;2022-12-29T12:29:20;99735.34;;;16.42;49.57
72359;BME280;60317;48.880;-0.862;2022-12-29T12:31:49;99744.19;;;16.42;49.45
72359;BME280;60317;48.880;-0.862;2022-12-29T12:34:19;99735.22;;;16.43;49.37
72359;BME280;60317;48.880;-0.862;2022-12-29T12:36:49;99741.28;;;16.45;49.46
72359;BME280;60317;48.880;-0.862;2022-12-29T12:39:20;99730.84;;;16.42;49.29
72359;BME280;60317;48.880;-0.862;2022-12-29T12:41:54;99744.19;;;16.42;49.08
72359;BME280;60317;48.880;-0.862;2022-12-29T12:44:24;99728.06;;;16.44;49.21
72359;BME280;60317;48.880;-0.862;2022-12-29T12:49:41;99726.50;;;16.41;49.42
72359;BME280;60317;48.880;-0.862;2022-12-29T12:52:15;99723.00;;;16.41;49.28
72359;BME280;60317;48.880;-0.862;2022-12-29T12:54:49;99727.34;;;16.42;49.38
72359;BME280;60317;48.880;-0.862;2022-12-29T12:57:22;99721.16;;;16.41;49.14
72359;BME280;60317;48.880;-0.862;2022-12-29T12:59:55;99728.19;;;16.42;49.40
72359;BME280;60317;48.880;-0.862;2022-12-29T13:02:29;99721.06;;;16.43;49.28
72359;BME280;60317;48.880;-0.862;2022-12-29T13:07:40;99720.19;;;16.42;49.45